sensor_id;sensor_type;location;lat;lon;timestamp;temperature;humidity
22948;DHT22;11640;52.520;13.456;2023-04-30T00:01:33;8.80;99.90
22948;DHT22;11640;52.520;13.456;2023-04-30T00:06:35;8.60;99.90
22948;DHT22;11640;52.520;13.456;2023-04-30T00:11:36;8.60;99.90
22948;DHT22;11640;52.520;13.456;2023-04-30T00:16:38;8.40;99.90
22948;DHT22;11640;52.520;13.456;2023-04-30T00:21:40;8.40;99.90
22948;DHT22;11640;52.520;13.456;2023-04-30T00:26:42;8.30;99.90
22948;DHT22;11640;52.520;13.456;2023-04-30T00:31:44;8.20;99.90
22948;DHT22;11640;52.520;13.456;2023-04-30T00:36:46;8.20;99.90
22948;DHT22;11640;52.520;13.456;2023-04-30T00:41:48;8.10;99.90
22948;DHT22;11640;52.520;13.456;2023-04-30T00:46:50;8.00;99.90
22948;DHT22;11640;52.520;13.456;2023-04-30T00:51:52;7.90;99.90
22948;DHT22;11640;52.520;13.456;2023-04-30T00:56:54;7.90;99.90
22948;DHT22;11640;52.520;13.456;2023-04-30T01:01:56;7.80;99.90
22948;DHT22;11640;52.520;13.456;2023-04-30T01:06:59;7.80;99.90
22948;DHT22;11640;52.520;13.456;2023-04-30T01:12:19;7.70;99.90
22948;DHT22;11640;52.520;13.456;2023-04-30T01:17:40;7.70;99.90
22948;DHT22;11640;52.520;13.456;2023-04-30T01:22:51;7.70;99.90
22948;DHT22;11640;52.520;13.456;2023-04-30T01:28:08;7.60;99.90
22948;DHT22;11640;52.520;13.456;2023-04-30T01:33:13;7.60;99.90
22948;DHT22;11640;52.520;13.456;2023-04-30T01:44:01;7.50;99.90
22948;DHT22;11640;52.520;13.456;2023-04-30T01:54:29;7.40;99.90
22948;DHT22;11640;52.520;13.456;2023-04-30T01:59:35;7.20;99.90
22948;DHT22;11640;52.520;13.456;2023-04-30T02:04:38;7.20;99.90
22948;DHT22;11640;52.520;13.456;2023-04-30T02:09:40;7.10;99.90
22948;DHT22;11640;52.520;13.456;2023-04-30T02:14:42;7.10;99.90
22948;DHT22;11640;52.520;13.456;2023-04-30T02:19:43;7.10;99.90
22948;DHT22;11640;52.520;13.456;2023-04-30T02:24:45;7.00;99.90
22948;DHT22;11640;52.520;13.456;2023-04-30T02:29:47;7.00;99.90
22948;DHT22;11640;52.520;13.456;2023-04-30T02:34:49;6.90;99.90
22948;DHT22;11640;52.520;13.456;2023-04-30T02:39:51;6.90;99.90
22948;DHT22;11640;52.520;13.456;2023-04-30T02:44:53;6.80;99.90
22948;DHT22;11640;52.520;13.456;2023-04-30T02:49:55;6.80;99.90
22948;DHT22;11640;52.520;13.456;2023-04-30T02:54:57;6.70;99.90
22948;DHT22;11640;52.520;13.456;2023-04-30T02:59:59;6.70;99.90
22948;DHT22;11640;52.520;13.456;2023-04-30T03:05:02;6.60;99.90
22948;DHT22;11640;52.520;13.456;2023-04-30T03:10:04;6.60;99.90
22948;DHT22;11640;52.520;13.456;2023-04-30T03:15:07;6.60;99.90
22948;DHT22;11640;52.520;13.456;2023-04-30T03:20:09;6.50;99.90
22948;DHT22;11640;52.520;13.456;2023-04-30T03:25:11;6.50;99.90
22948;DHT22;11640;52.520;13.456;2023-04-30T03:30:14;6.50;99.90
22948;DHT22;11640;52.520;13.456;2023-04-30T03:35:15;6.20;99.90
22948;DHT22;11640;52.520;13.456;2023-04-30T03:40:17;6.20;99.90
22948;DHT22;11640;52.520;13.456;2023-04-30T03:45:19;6.20;99.90
22948;DHT22;11640;52.520;13.456;2023-04-30T03:50:21;6.10;99.90
22948;DHT22;11640;52.520;13.456;2023-04-30T03:55:23;6.10;99.90
22948;DHT22;11640;52.520;13.456;2023-04-30T04:00:25;6.10;99.90
22948;DHT22;11640;52.520;13.456;2023-04-30T04:05:27;6.00;99.90
22948;DHT22;11640;52.520;13.456;2023-04-30T04:10:29;6.00;99.90
22948;DHT22;11640;52.520;13.456;2023-04-30T04:15:32;6.00;99.90
22948;DHT22;11640;52.520;13.456;2023-04-30T04:20:35;5.90;99.90
22948;DHT22;11640;52.520;13.456;2023-04-30T04:25:37;5.80;99.90
22948;DHT22;11640;52.520;13.456;2023-04-30T04:30:40;5.80;99.90
22948;DHT22;11640;52.520;13.456;2023-04-30T04:35:41;5.80;99.90
22948;DHT22;11640;52.520;13.456;2023-04-30T04:40:50;5.80;99.90
22948;DHT22;11640;52.520;13.456;2023-04-30T04:45:53;5.80;99.90
22948;DHT22;11640;52.520;13.456;2023-04-30T04:50:55;5.80;99.90
22948;DHT22;11640;52.520;13.456;2023-04-30T04:55:57;5.80;99.90
22948;DHT22;11640;52.520;13.456;2023-04-30T05:00:58;5.80;99.90
22948;DHT22;11640;52.520;13.456;2023-04-30T05:06:00;5.90;99.90
22948;DHT22;11640;52.520;13.456;2023-04-30T05:11:02;5.90;99.90
22948;DHT22;11640;52.520;13.456;2023-04-30T05:16:04;5.90;99.90
22948;DHT22;11640;52.520;13.456;2023-04-30T05:21:06;6.00;99.90
22948;DHT22;11640;52.520;13.456;2023-04-30T05:26:08;5.90;99.90
22948;DHT22;11640;52.520;13.456;2023-04-30T05:31:10;5.90;99.90
22948;DHT22;11640;52.520;13.456;2023-04-30T05:36:12;6.10;99.90
22948;DHT22;11640;52.520;13.456;2023-04-30T05:41:14;6.10;99.90
22948;DHT22;11640;52.520;13.456;2023-04-30T05:46:16;6.20;99.90
22948;DHT22;11640;52.520;13.456;2023-04-30T05:51:18;6.40;99.90
22948;DHT22;11640;52.520;13.456;2023-04-30T05:56:19;6.50;99.90
22948;DHT22;11640;52.520;13.456;2023-04-30T06:01:21;6.60;99.90
22948;DHT22;11640;52.520;13.456;2023-04-30T06:06:23;6.60;99.90
22948;DHT22;11640;52.520;13.456;2023-04-30T06:11:25;6.80;99.90
22948;DHT22;11640;52.520;13.456;2023-04-30T06:16:28;6.80;99.90
22948;DHT22;11640;52.520;13.456;2023-04-30T06:21:29;6.80;99.90
22948;DHT22;11640;52.520;13.456;2023-04-30T06:26:32;7.00;99.90
22948;DHT22;11640;52.520;13.456;2023-04-30T06:31:34;7.10;99.90
22948;DHT22;11640;52.520;13.456;2023-04-30T06:36:35;7.20;99.90
22948;DHT22;11640;52.520;13.456;2023-04-30T06:41:37;7.30;99.90
22948;DHT22;11640;52.520;13.456;2023-04-30T06:46:43;7.20;99.90
22948;DHT22;11640;52.520;13.456;2023-04-30T06:51:45;7.50;99.90
22948;DHT22;11640;52.520;13.456;2023-04-30T06:56:47;7.60;99.90
22948;DHT22;11640;52.520;13.456;2023-04-30T07:01:49;7.70;99.90
22948;DHT22;11640;52.520;13.456;2023-04-30T07:06:51;7.70;99.90
22948;DHT22;11640;52.520;13.456;2023-04-30T07:11:53;7.90;99.90
22948;DHT22;11640;52.520;13.456;2023-04-30T07:16:55;8.10;99.90
22948;DHT22;11640;52.520;13.456;2023-04-30T07:21:57;8.30;99.90
22948;DHT22;11640;52.520;13.456;2023-04-30T07:26:58;8.60;99.90
22948;DHT22;11640;52.520;13.456;2023-04-30T07:32:03;8.80;99.90
22948;DHT22;11640;52.520;13.456;2023-04-30T07:37:05;8.70;99.90
22948;DHT22;11640;52.520;13.456;2023-04-30T07:42:07;8.60;99.90
22948;DHT22;11640;52.520;13.456;2023-04-30T07:47:09;8.80;99.90
22948;DHT22;11640;52.520;13.456;2023-04-30T07:52:11;8.90;99.90
22948;DHT22;11640;52.520;13.456;2023-04-30T07:57:13;8.80;99.90
22948;DHT22;11640;52.520;13.456;2023-04-30T08:02:14;9.10;99.90
22948;DHT22;11640;52.520;13.456;2023-04-30T08:07:16;9.20;99.90
22948;DHT22;11640;52.520;13.456;2023-04-30T08:12:18;9.20;99.90
22948;DHT22;11640;52.520;13.456;2023-04-30T08:17:20;9.30;99.90
22948;DHT22;11640;52.520;13.456;2023-04-30T08:22:23;9.20;99.90
22948;DHT22;11640;52.520;13.456;2023-04-30T08:27:24;9.30;99.90
22948;DHT22;11640;52.520;13.456;2023-04-30T08:32:26;9.40;99.90
22948;DHT22;11640;52.520;13.456;2023-04-30T08:37:28;9.60;99.90
22948;DHT22;11640;52.520;13.456;2023-04-30T08:42:31;9.60;99.90
22948;DHT22;11640;52.520;13.456;2023-04-30T08:47:35;9.60;99.90
22948;DHT22;11640;52.520;13.456;2023-04-30T08:52:38;9.70;99.90
22948;DHT22;11640;52.520;13.456;2023-04-30T08:57:40;9.80;99.90
22948;DHT22;11640;52.520;13.456;2023-04-30T09:02:42;10.00;99.90
22948;DHT22;11640;52.520;13.456;2023-04-30T09:07:44;10.00;99.90
22948;DHT22;11640;52.520;13.456;2023-04-30T09:13:06;10.10;99.90
22948;DHT22;11640;52.520;13.456;2023-04-30T09:18:15;10.30;99.90
22948;DHT22;11640;52.520;13.456;2023-04-30T09:23:22;10.20;99.90
22948;DHT22;11640;52.520;13.456;2023-04-30T09:28:24;10.30;99.90
22948;DHT22;11640;52.520;13.456;2023-04-30T09:33:25;10.30;99.90
22948;DHT22;11640;52.520;13.456;2023-04-30T09:38:30;10.40;99.90
22948;DHT22;11640;52.520;13.456;2023-04-30T09:43:32;10.50;99.90
22948;DHT22;11640;52.520;13.456;2023-04-30T09:48:34;10.40;99.90
22948;DHT22;11640;52.520;13.456;2023-04-30T09:53:37;10.60;99.90
22948;DHT22;11640;52.520;13.456;2023-04-30T09:58:43;10.70;99.90
22948;DHT22;11640;52.520;13.456;2023-04-30T10:03:46;10.90;99.90
22948;DHT22;11640;52.520;13.456;2023-04-30T10:08:55;10.90;98.40
22948;DHT22;11640;52.520;13.456;2023-04-30T10:14:12;10.90;94.80
22948;DHT22;11640;52.520;13.456;2023-04-30T10:19:20;10.70;96.00
22948;DHT22;11640;52.520;13.456;2023-04-30T10:24:23;11.00;96.70
22948;DHT22;11640;52.520;13.456;2023-04-30T10:29:25;11.10;97.40
22948;DHT22;11640;52.520;13.456;2023-04-30T10:39:50;11.20;97.00
22948;DHT22;11640;52.520;13.456;2023-04-30T10:44:52;11.20;96.80
22948;DHT22;11640;52.520;13.456;2023-04-30T10:50:02;11.60;97.30
22948;DHT22;11640;52.520;13.456;2023-04-30T10:55:08;11.50;96.20
22948;DHT22;11640;52.520;13.456;2023-04-30T11:05:15;11.60;96.30
22948;DHT22;11640;52.520;13.456;2023-04-30T11:10:22;11.40;97.30
22948;DHT22;11640;52.520;13.456;2023-04-30T11:15:26;11.70;96.40
22948;DHT22;11640;52.520;13.456;2023-04-30T11:20:28;11.70;95.90
22948;DHT22;11640;52.520;13.456;2023-04-30T11:25:38;11.70;96.10
22948;DHT22;11640;52.520;13.456;2023-04-30T11:30:48;11.80;96.70
22948;DHT22;11640;52.520;13.456;2023-04-30T11:35:50;11.80;96.90
22948;DHT22;11640;52.520;13.456;2023-04-30T11:40:53;11.80;96.30
22948;DHT22;11640;52.520;13.456;2023-04-30T11:51:16;12.00;95.10
22948;DHT22;11640;52.520;13.456;2023-04-30T11:56:19;12.20;95.30
22948;DHT22;11640;52.520;13.456;2023-04-30T12:01:26;12.40;94.70
22948;DHT22;11640;52.520;13.456;2023-04-30T12:06:29;12.70;95.00
22948;DHT22;11640;52.520;13.456;2023-04-30T12:11:32;12.70;94.60
22948;DHT22;11640;52.520;13.456;2023-04-30T12:16:42;12.90;93.80
22948;DHT22;11640;52.520;13.456;2023-04-30T12:21:47;13.00;92.10
22948;DHT22;11640;52.520;13.456;2023-04-30T12:26:52;13.10;93.20
22948;DHT22;11640;52.520;13.456;2023-04-30T12:31:54;13.60;91.70
22948;DHT22;11640;52.520;13.456;2023-04-30T12:36:57;13.80;91.50
22948;DHT22;11640;52.520;13.456;2023-04-30T12:41:59;14.20;92.50
22948;DHT22;11640;52.520;13.456;2023-04-30T12:47:06;14.90;90.50
22948;DHT22;11640;52.520;13.456;2023-04-30T12:52:10;15.10;90.30
22948;DHT22;11640;52.520;13.456;2023-04-30T12:57:12;15.10;90.70
22948;DHT22;11640;52.520;13.456;2023-04-30T13:02:14;15.60;88.00
22948;DHT22;11640;52.520;13.456;2023-04-30T13:07:16;15.70;85.70
22948;DHT22;11640;52.520;13.456;2023-04-30T13:12:18;16.00;84.20
22948;DHT22;11640;52.520;13.456;2023-04-30T13:17:20;16.50;82.00
22948;DHT22;11640;52.520;13.456;2023-04-30T13:22:23;16.50;81.20
22948;DHT22;11640;52.520;13.456;2023-04-30T13:32:32;16.90;79.80
22948;DHT22;11640;52.520;13.456;2023-04-30T13:37:34;16.90;81.00
22948;DHT22;11640;52.520;13.456;2023-04-30T13:42:37;17.00;79.60
22948;DHT22;11640;52.520;13.456;2023-04-30T13:47:42;17.90;77.50
22948;DHT22;11640;52.520;13.456;2023-04-30T13:52:44;17.70;75.30
22948;DHT22;11640;52.520;13.456;2023-04-30T13:57:46;18.80;71.60
22948;DHT22;11640;52.520;13.456;2023-04-30T14:02:48;20.20;66.40
22948;DHT22;11640;52.520;13.456;2023-04-30T14:07:50;19.10;65.80
22948;DHT22;11640;52.520;13.456;2023-04-30T14:12:51;18.80;64.80
22948;DHT22;11640;52.520;13.456;2023-04-30T14:17:53;21.00;60.60
22948;DHT22;11640;52.520;13.456;2023-04-30T14:22:55;19.20;60.80
22948;DHT22;11640;52.520;13.456;2023-04-30T14:27:57;19.90;59.40
22948;DHT22;11640;52.520;13.456;2023-04-30T14:32:59;19.40;60.50
22948;DHT22;11640;52.520;13.456;2023-04-30T14:38:01;19.00;58.90
22948;DHT22;11640;52.520;13.456;2023-04-30T14:43:03;21.70;55.30
22948;DHT22;11640;52.520;13.456;2023-04-30T14:48:04;20.40;55.20
22948;DHT22;11640;52.520;13.456;2023-04-30T14:53:06;19.50;55.20
22948;DHT22;11640;52.520;13.456;2023-04-30T14:58:10;18.90;56.20
22948;DHT22;11640;52.520;13.456;2023-04-30T15:03:11;19.10;53.50
22948;DHT22;11640;52.520;13.456;2023-04-30T15:08:13;19.00;53.10
22948;DHT22;11640;52.520;13.456;2023-04-30T15:13:15;19.00;54.30
22948;DHT22;11640;52.520;13.456;2023-04-30T15:18:17;19.20;52.40
22948;DHT22;11640;52.520;13.456;2023-04-30T15:23:18;18.40;53.00
22948;DHT22;11640;52.520;13.456;2023-04-30T15:28:21;18.00;54.00
22948;DHT22;11640;52.520;13.456;2023-04-30T15:33:25;18.70;53.20
22948;DHT22;11640;52.520;13.456;2023-04-30T15:38:29;18.50;52.90
22948;DHT22;11640;52.520;13.456;2023-04-30T15:43:31;17.10;54.30
22948;DHT22;11640;52.520;13.456;2023-04-30T15:48:33;16.30;55.50
22948;DHT22;11640;52.520;13.456;2023-04-30T15:53:35;16.30;57.50
22948;DHT22;11640;52.520;13.456;2023-04-30T15:58:38;16.10;57.30
22948;DHT22;11640;52.520;13.456;2023-04-30T16:03:40;15.80;57.50
22948;DHT22;11640;52.520;13.456;2023-04-30T16:08:43;15.40;58.40
22948;DHT22;11640;52.520;13.456;2023-04-30T16:13:46;15.30;58.90
22948;DHT22;11640;52.520;13.456;2023-04-30T16:18:48;15.50;58.50
22948;DHT22;11640;52.520;13.456;2023-04-30T16:23:51;15.20;58.30
22948;DHT22;11640;52.520;13.456;2023-04-30T16:28:53;15.10;57.30
22948;DHT22;11640;52.520;13.456;2023-04-30T16:33:55;15.00;58.30
22948;DHT22;11640;52.520;13.456;2023-04-30T16:38:56;14.90;57.90
22948;DHT22;11640;52.520;13.456;2023-04-30T16:43:58;14.70;58.90
22948;DHT22;11640;52.520;13.456;2023-04-30T16:49:00;14.50;60.00
22948;DHT22;11640;52.520;13.456;2023-04-30T16:54:02;14.60;59.90
22948;DHT22;11640;52.520;13.456;2023-04-30T16:59:04;14.40;60.00
22948;DHT22;11640;52.520;13.456;2023-04-30T17:04:06;14.30;60.10
22948;DHT22;11640;52.520;13.456;2023-04-30T17:09:08;14.40;60.10
22948;DHT22;11640;52.520;13.456;2023-04-30T17:14:10;14.30;58.40
22948;DHT22;11640;52.520;13.456;2023-04-30T17:19:12;14.20;58.60
22948;DHT22;11640;52.520;13.456;2023-04-30T17:24:14;14.10;59.60
22948;DHT22;11640;52.520;13.456;2023-04-30T17:29:16;14.00;60.60
22948;DHT22;11640;52.520;13.456;2023-04-30T17:34:19;13.90;61.00
22948;DHT22;11640;52.520;13.456;2023-04-30T17:39:21;13.80;57.80
22948;DHT22;11640;52.520;13.456;2023-04-30T17:44:23;13.80;57.70
22948;DHT22;11640;52.520;13.456;2023-04-30T17:49:24;13.70;57.30
22948;DHT22;11640;52.520;13.456;2023-04-30T17:54:28;13.60;59.90
22948;DHT22;11640;52.520;13.456;2023-04-30T17:59:31;13.50;61.20
22948;DHT22;11640;52.520;13.456;2023-04-30T18:04:33;13.40;62.40
22948;DHT22;11640;52.520;13.456;2023-04-30T18:09:35;13.40;62.00
22948;DHT22;11640;52.520;13.456;2023-04-30T18:14:36;13.30;60.90
22948;DHT22;11640;52.520;13.456;2023-04-30T18:19:38;13.20;62.40
22948;DHT22;11640;52.520;13.456;2023-04-30T18:24:44;13.10;62.30
22948;DHT22;11640;52.520;13.456;2023-04-30T18:29:46;13.00;63.90
22948;DHT22;11640;52.520;13.456;2023-04-30T18:34:49;12.90;70.60
22948;DHT22;11640;52.520;13.456;2023-04-30T18:39:51;12.70;75.70
22948;DHT22;11640;52.520;13.456;2023-04-30T18:44:53;12.50;79.30
22948;DHT22;11640;52.520;13.456;2023-04-30T18:49:55;12.30;81.00
22948;DHT22;11640;52.520;13.456;2023-04-30T18:54:58;12.20;75.60
22948;DHT22;11640;52.520;13.456;2023-04-30T18:59:59;12.00;83.50
22948;DHT22;11640;52.520;13.456;2023-04-30T19:05:01;12.00;78.60
22948;DHT22;11640;52.520;13.456;2023-04-30T19:10:04;11.90;83.70
22948;DHT22;11640;52.520;13.456;2023-04-30T19:15:06;11.70;86.00
22948;DHT22;11640;52.520;13.456;2023-04-30T19:20:09;11.70;81.90
22948;DHT22;11640;52.520;13.456;2023-04-30T19:25:12;11.80;79.60
22948;DHT22;11640;52.520;13.456;2023-04-30T19:30:14;11.50;87.10
22948;DHT22;11640;52.520;13.456;2023-04-30T19:35:16;11.30;89.70
22948;DHT22;11640;52.520;13.456;2023-04-30T19:40:18;11.20;89.80
22948;DHT22;11640;52.520;13.456;2023-04-30T19:45:20;11.40;85.70
22948;DHT22;11640;52.520;13.456;2023-04-30T19:50:22;11.40;88.10
22948;DHT22;11640;52.520;13.456;2023-04-30T19:55:25;11.30;89.70
22948;DHT22;11640;52.520;13.456;2023-04-30T20:00:26;11.30;91.00
22948;DHT22;11640;52.520;13.456;2023-04-30T20:05:36;11.20;92.20
22948;DHT22;11640;52.520;13.456;2023-04-30T20:10:38;11.10;93.00
22948;DHT22;11640;52.520;13.456;2023-04-30T20:15:41;11.00;93.90
22948;DHT22;11640;52.520;13.456;2023-04-30T20:20:43;10.90;94.70
22948;DHT22;11640;52.520;13.456;2023-04-30T20:25:45;10.80;95.70
22948;DHT22;11640;52.520;13.456;2023-04-30T20:30:47;10.80;96.50
22948;DHT22;11640;52.520;13.456;2023-04-30T20:35:50;10.70;97.80
22948;DHT22;11640;52.520;13.456;2023-04-30T20:40:51;10.50;99.00
22948;DHT22;11640;52.520;13.456;2023-04-30T20:45:57;10.40;99.70
22948;DHT22;11640;52.520;13.456;2023-04-30T20:50:59;10.20;99.90
22948;DHT22;11640;52.520;13.456;2023-04-30T20:56:01;10.10;99.90
22948;DHT22;11640;52.520;13.456;2023-04-30T21:01:03;10.00;99.90
22948;DHT22;11640;52.520;13.456;2023-04-30T21:06:05;9.90;99.90
22948;DHT22;11640;52.520;13.456;2023-04-30T21:11:07;9.80;99.90
22948;DHT22;11640;52.520;13.456;2023-04-30T21:16:09;9.70;99.90
22948;DHT22;11640;52.520;13.456;2023-04-30T21:21:11;9.60;99.90
22948;DHT22;11640;52.520;13.456;2023-04-30T21:26:13;9.70;99.90
22948;DHT22;11640;52.520;13.456;2023-04-30T21:31:15;9.60;99.90
22948;DHT22;11640;52.520;13.456;2023-04-30T21:36:17;9.60;99.90
22948;DHT22;11640;52.520;13.456;2023-04-30T21:41:19;9.50;99.90
22948;DHT22;11640;52.520;13.456;2023-04-30T21:46:22;9.40;99.90
22948;DHT22;11640;52.520;13.456;2023-04-30T21:51:24;9.20;99.90
22948;DHT22;11640;52.520;13.456;2023-04-30T21:56:26;9.20;99.90
22948;DHT22;11640;52.520;13.456;2023-04-30T22:01:28;9.20;99.90
22948;DHT22;11640;52.520;13.456;2023-04-30T22:06:30;9.20;99.90
22948;DHT22;11640;52.520;13.456;2023-04-30T22:11:35;9.00;99.90
22948;DHT22;11640;52.520;13.456;2023-04-30T22:16:37;8.90;99.90
22948;DHT22;11640;52.520;13.456;2023-04-30T22:21:39;8.80;99.90
22948;DHT22;11640;52.520;13.456;2023-04-30T22:26:41;8.80;99.90
22948;DHT22;11640;52.520;13.456;2023-04-30T22:31:43;8.70;99.90
22948;DHT22;11640;52.520;13.456;2023-04-30T22:36:44;8.60;99.90
22948;DHT22;11640;52.520;13.456;2023-04-30T22:41:47;8.50;99.90
22948;DHT22;11640;52.520;13.456;2023-04-30T22:46:52;8.50;99.90
22948;DHT22;11640;52.520;13.456;2023-04-30T22:51:54;8.40;99.90
22948;DHT22;11640;52.520;13.456;2023-04-30T22:56:55;8.40;99.90
22948;DHT22;11640;52.520;13.456;2023-04-30T23:01:59;8.30;99.90
22948;DHT22;11640;52.520;13.456;2023-04-30T23:07:01;8.30;99.90
22948;DHT22;11640;52.520;13.456;2023-04-30T23:12:03;8.40;99.90
22948;DHT22;11640;52.520;13.456;2023-04-30T23:17:06;8.50;99.90
22948;DHT22;11640;52.520;13.456;2023-04-30T23:22:07;8.40;99.90
22948;DHT22;11640;52.520;13.456;2023-04-30T23:27:10;8.20;99.90
22948;DHT22;11640;52.520;13.456;2023-04-30T23:32:12;8.10;99.90
22948;DHT22;11640;52.520;13.456;2023-04-30T23:37:14;8.20;99.90
22948;DHT22;11640;52.520;13.456;2023-04-30T23:42:17;8.20;99.90
22948;DHT22;11640;52.520;13.456;2023-04-30T23:47:18;8.10;99.90
22948;DHT22;11640;52.520;13.456;2023-04-30T23:52:20;8.20;99.90
22948;DHT22;11640;52.520;13.456;2023-04-30T23:57:22;8.20;99.90
